createdAt,value
2018-06-21T00:00:38.684Z,72.50
2018-06-21T00:01:38.667Z,71.73
2018-06-21T00:02:38.654Z,70.78
2018-06-21T00:03:38.662Z,70.87
2018-06-21T00:04:38.629Z,69.97
2018-06-21T00:05:38.935Z,68.85
2018-06-21T00:06:38.614Z,67.99
2018-06-21T00:07:38.594Z,68.15
2018-06-21T00:08:38.577Z,66.80
2018-06-21T00:09:38.565Z,66.80
2018-06-21T00:10:38.558Z,66.52
2018-06-21T00:11:38.552Z,66.52
2018-06-21T00:12:38.840Z,66.52
2018-06-21T00:13:38.524Z,65.84
2018-06-21T00:14:38.508Z,66.61
2018-06-21T00:15:38.490Z,66.61
2018-06-21T00:16:38.481Z,67.00
2018-06-21T00:17:38.468Z,65.65
2018-06-21T00:18:38.547Z,65.36
2018-06-21T00:19:38.763Z,65.56
2018-06-21T00:20:38.436Z,64.79
2018-06-21T00:21:38.429Z,64.59
2018-06-21T00:22:38.403Z,63.73
2018-06-21T00:23:38.393Z,63.35
2018-06-21T00:24:38.374Z,62.87
2018-06-21T00:25:38.359Z,62.45
2018-06-21T00:26:38.651Z,62.68
2018-06-21T00:27:38.336Z,64.69
2018-06-21T00:28:38.324Z,64.76
2018-06-21T00:29:38.313Z,63.03
2018-06-21T00:30:38.303Z,63.42
2018-06-21T00:31:38.287Z,63.03
2018-06-21T00:32:38.275Z,62.36
2018-06-21T00:33:38.562Z,61.78
2018-06-21T00:34:38.248Z,60.53
2018-06-21T00:35:38.238Z,59.29
2018-06-21T00:36:38.218Z,57.37
2018-06-21T00:37:38.212Z,54.46
2018-06-21T00:38:38.199Z,54.46
2018-06-21T00:39:38.183Z,53.70
2018-06-21T00:40:38.723Z,53.50
2018-06-21T00:41:38.155Z,52.83
2018-06-21T00:42:38.144Z,53.60
2018-06-21T00:43:38.345Z,53.89
2018-06-21T00:44:38.131Z,55.04
2018-06-21T00:45:38.101Z,53.70
2018-06-21T00:46:38.090Z,54.94
2018-06-21T00:47:38.374Z,55.42
2018-06-21T00:48:38.063Z,55.52
2018-06-21T00:49:38.049Z,56.38
2018-06-21T00:50:38.046Z,56.41
2018-06-21T00:51:38.024Z,55.42
2018-06-21T00:52:38.005Z,56.00
2018-06-21T00:53:38.298Z,56.86
2018-06-21T00:54:37.983Z,57.15
2018-06-21T00:55:37.982Z,55.04
2018-06-21T00:56:37.956Z,53.99
2018-06-21T00:57:37.952Z,53.70
2018-06-21T00:58:37.935Z,52.64
2018-06-21T00:59:38.239Z,50.73
2018-06-21T01:00:37.903Z,49.86
2018-06-21T01:01:37.992Z,49.96
2018-06-21T01:02:37.937Z,49.76
2018-06-21T01:03:37.864Z,50.53
2018-06-21T01:04:37.848Z,48.90
2018-06-21T01:05:38.140Z,47.85
2018-06-21T01:06:37.836Z,47.82
2018-06-21T01:07:37.829Z,47.34
2018-06-21T01:09:37.814Z,41.31
2018-06-21T01:10:37.779Z,41.40
2018-06-21T01:11:38.061Z,40.92
2018-06-21T01:12:37.741Z,39.10
2018-06-21T01:13:37.730Z,40.83
2018-06-21T01:14:37.717Z,42.07
2018-06-21T01:15:37.758Z,42.17
2018-06-21T01:16:37.685Z,42.00
2018-06-21T01:17:37.974Z,42.17
2018-06-21T01:18:37.689Z,42.94
2018-06-21T01:19:37.644Z,42.96
2018-06-21T01:20:37.638Z,43.03
2018-06-21T01:21:37.921Z,42.46
2018-06-21T01:22:37.604Z,42.96
2018-06-21T01:23:37.911Z,44.01
2018-06-21T01:24:37.577Z,44.87
2018-06-21T01:25:37.568Z,45.54
2018-06-21T01:26:37.551Z,46.31
2018-06-21T01:27:37.593Z,44.68
2018-06-21T01:28:37.524Z,44.18
2018-06-21T01:29:37.820Z,43.91
2018-06-21T01:30:37.504Z,42.67
2018-06-21T01:31:37.489Z,43.60
2018-06-21T01:32:37.469Z,44.49
2018-06-21T01:34:37.490Z,43.51
2018-06-21T01:35:37.428Z,43.41
2018-06-21T01:36:37.712Z,42.55
2018-06-21T01:37:37.409Z,42.36
2018-06-21T01:38:37.389Z,41.50
2018-06-21T01:39:37.371Z,39.97
2018-06-21T01:40:37.360Z,38.81
2018-06-21T01:41:37.348Z,39.29
2018-06-21T01:42:37.338Z,38.24
2018-06-21T01:43:37.617Z,38.53
2018-06-21T01:44:37.305Z,38.24
2018-06-21T01:45:37.294Z,38.24
2018-06-21T01:46:37.275Z,37.66
2018-06-21T01:47:37.264Z,38.24
2018-06-21T01:48:37.264Z,38.14
2018-06-21T01:49:37.236Z,36.99
2018-06-21T01:50:37.524Z,37.18
2018-06-21T01:51:37.215Z,36.13
2018-06-21T01:52:37.192Z,34.59
2018-06-21T01:53:37.180Z,34.79
2018-06-21T01:54:37.172Z,34.31
2018-06-21T01:55:37.154Z,34.12
2018-06-21T01:56:37.136Z,32.86
2018-06-21T01:57:37.440Z,33.24
2018-06-21T01:58:37.110Z,32.86
2018-06-21T01:59:37.099Z,32.86
2018-06-21T02:00:37.081Z,32.86
2018-06-21T02:01:37.067Z,32.47
2018-06-21T02:02:37.055Z,31.99
2018-06-21T02:03:37.049Z,30.94
2018-06-21T02:04:37.324Z,30.46
2018-06-21T02:05:37.020Z,29.98
2018-06-21T02:06:37.010Z,29.88
2018-06-21T02:07:36.986Z,30.08
2018-06-21T02:08:36.971Z,31.05
2018-06-21T02:09:36.960Z,32.39
2018-06-21T02:10:36.961Z,32.78
2018-06-21T02:11:37.236Z,33.54
2018-06-21T02:12:36.943Z,34.22
2018-06-21T02:13:36.903Z,33.24
2018-06-21T02:14:36.895Z,33.06
2018-06-21T02:15:36.898Z,32.86
2018-06-21T02:16:36.858Z,32.47
2018-06-21T02:17:37.189Z,32.28
2018-06-21T02:18:37.185Z,30.46
2018-06-21T02:19:36.826Z,30.08
2018-06-21T02:20:36.805Z,29.41
2018-06-21T02:21:36.823Z,29.79
2018-06-21T02:22:36.774Z,29.41
2018-06-21T02:23:36.762Z,29.12
2018-06-21T02:24:37.056Z,29.02
2018-06-21T02:25:36.750Z,29.60
2018-06-21T02:26:36.787Z,30.18
2018-06-21T02:27:36.708Z,29.88
2018-06-21T02:28:36.698Z,30.36
2018-06-21T02:29:36.685Z,31.05
2018-06-21T02:30:36.959Z,31.34
2018-06-21T02:31:36.645Z,32.10
2018-06-21T02:32:36.631Z,32.10
2018-06-21T02:33:36.698Z,31.34
2018-06-21T02:34:36.766Z,30.46
2018-06-21T02:35:37.171Z,30.38
2018-06-21T02:36:36.877Z,29.42
2018-06-21T02:37:36.579Z,30.18
2018-06-21T02:38:36.554Z,30.29
2018-06-21T02:39:36.546Z,29.90
2018-06-21T02:40:36.526Z,30.38
2018-06-21T02:41:36.501Z,30.29
2018-06-21T02:42:36.789Z,30.86
2018-06-21T02:44:36.462Z,29.71
2018-06-21T02:45:36.463Z,29.13
2018-06-21T02:46:36.440Z,28.66
2018-06-21T02:47:36.421Z,28.75
2018-06-21T02:48:36.702Z,28.17
2018-06-21T02:49:36.397Z,27.79
2018-06-21T02:50:36.376Z,27.89
2018-06-21T02:51:36.365Z,27.20
2018-06-21T02:53:36.337Z,26.16
2018-06-21T02:54:36.321Z,28.66
2018-06-21T02:55:36.611Z,29.04
2018-06-21T02:56:36.288Z,28.46
2018-06-21T02:57:36.276Z,28.66
2018-06-21T02:59:36.251Z,29.42
2018-06-21T03:00:36.236Z,30.00
2018-06-21T03:01:36.522Z,30.38
2018-06-21T03:02:36.203Z,29.90
2018-06-21T03:03:36.201Z,29.71
2018-06-21T03:04:36.177Z,29.52
2018-06-21T03:05:36.164Z,29.33
2018-06-21T03:07:36.466Z,31.92
2018-06-21T03:08:36.123Z,32.59
2018-06-21T03:09:36.107Z,32.78
2018-06-21T03:10:36.102Z,32.59
2018-06-21T03:11:36.077Z,32.79
2018-06-21T03:12:36.061Z,32.01
2018-06-21T03:13:36.152Z,32.01
2018-06-21T03:14:36.343Z,31.34
2018-06-21T03:15:36.022Z,32.68
2018-06-21T03:16:36.011Z,32.70
2018-06-21T03:18:35.979Z,32.29
2018-06-21T03:19:35.964Z,32.29
2018-06-21T03:20:35.954Z,32.21
2018-06-21T03:21:36.246Z,31.34
2018-06-21T03:22:35.921Z,31.24
2018-06-21T03:23:35.907Z,31.05
2018-06-21T03:24:35.895Z,30.09
2018-06-21T03:25:35.881Z,29.61
2018-06-21T03:26:35.873Z,29.90
2018-06-21T03:28:36.142Z,28.46
2018-06-21T03:29:35.828Z,27.79
2018-06-21T03:30:35.811Z,28.46
2018-06-21T03:31:35.797Z,27.89
2018-06-21T03:32:35.782Z,27.89
2018-06-21T03:33:35.769Z,27.41
2018-06-21T03:34:35.791Z,27.03
2018-06-21T03:35:36.045Z,27.03
2018-06-21T03:36:35.727Z,27.12
2018-06-21T03:37:35.714Z,26.35
2018-06-21T03:38:35.702Z,27.03
2018-06-21T03:39:35.733Z,27.12
2018-06-21T03:40:35.668Z,26.83
2018-06-21T03:41:35.664Z,26.16
2018-06-21T03:42:35.942Z,27.22
2018-06-21T03:43:35.629Z,27.31
2018-06-21T03:44:35.627Z,27.31
2018-06-21T03:46:35.592Z,26.35
2018-06-21T03:47:35.586Z,27.41
2018-06-21T03:48:35.578Z,28.48
2018-06-21T03:50:35.604Z,28.86
2018-06-21T03:51:35.523Z,28.67
2018-06-21T03:52:35.501Z,29.91
2018-06-21T03:53:35.494Z,30.68
2018-06-21T03:54:35.481Z,31.45
2018-06-21T03:55:35.546Z,32.81
2018-06-21T03:56:35.451Z,33.19
2018-06-21T03:58:35.418Z,35.78
2018-06-21T03:59:35.407Z,37.03
2018-06-21T04:00:35.399Z,37.80
2018-06-21T04:01:35.680Z,38.47
2018-06-21T04:02:35.363Z,38.78
2018-06-21T04:03:35.352Z,38.87
2018-06-21T04:04:36.271Z,39.73
2018-06-21T04:05:35.325Z,40.12
2018-06-21T04:06:35.308Z,40.60
2018-06-21T04:07:35.300Z,40.99
2018-06-21T04:08:35.282Z,40.89
2018-06-21T04:09:35.277Z,41.75
2018-06-21T04:10:35.252Z,41.94
2018-06-21T04:11:35.255Z,43.00
2018-06-21T04:12:35.235Z,43.48
2018-06-21T04:13:35.211Z,43.48
2018-06-21T04:14:35.199Z,43.87
2018-06-21T04:15:35.185Z,43.79
2018-06-21T04:16:35.170Z,44.24
2018-06-21T04:17:35.238Z,44.63
2018-06-21T04:19:35.438Z,44.65
2018-06-21T04:20:35.120Z,45.52
2018-06-21T04:21:35.118Z,46.00
2018-06-21T04:22:35.089Z,46.28
2018-06-21T04:23:35.079Z,47.05
2018-06-21T04:24:35.062Z,47.44
2018-06-21T04:25:35.050Z,47.53
2018-06-21T04:26:35.062Z,47.63
2018-06-21T04:27:35.025Z,47.82
2018-06-21T04:28:35.025Z,47.34
2018-06-21T04:29:35.003Z,47.15
2018-06-21T04:30:34.987Z,47.25
2018-06-21T04:31:35.273Z,47.53
2018-06-21T04:32:34.957Z,47.44
2018-06-21T04:33:34.944Z,48.30
2018-06-21T04:34:34.940Z,47.53
2018-06-21T04:35:34.926Z,48.02
2018-06-21T04:36:34.955Z,48.30
2018-06-21T04:37:34.950Z,48.69
2018-06-21T04:38:35.183Z,48.69
2018-06-21T04:39:34.872Z,48.61
2018-06-21T04:40:34.854Z,48.49
2018-06-21T04:41:34.865Z,48.61
2018-06-21T04:42:34.831Z,48.79
2018-06-21T04:43:34.965Z,48.79
2018-06-21T04:44:34.804Z,48.90
2018-06-21T04:45:35.092Z,49.00
2018-06-21T04:46:34.806Z,48.90
2018-06-21T04:47:34.762Z,49.19
2018-06-21T04:48:34.750Z,49.87
2018-06-21T04:49:34.736Z,51.31
2018-06-21T04:50:34.721Z,51.21
2018-06-21T04:51:34.718Z,51.69
2018-06-21T04:52:35.009Z,51.79
2018-06-21T04:53:34.690Z,52.84
2018-06-21T04:54:34.672Z,53.90
2018-06-21T04:55:34.666Z,52.55
2018-06-21T04:56:35.847Z,54.41
2018-06-21T04:57:34.634Z,55.27
2018-06-21T04:58:34.923Z,55.66
2018-06-21T04:59:34.614Z,56.71
2018-06-21T05:00:34.611Z,57.39
2018-06-21T05:01:34.584Z,57.48
2018-06-21T05:02:34.570Z,56.71
2018-06-21T05:03:34.562Z,56.52
2018-06-21T05:04:34.845Z,58.83
2018-06-21T05:05:34.539Z,57.87
2018-06-21T05:06:34.521Z,58.37
2018-06-21T05:07:34.560Z,59.12
2018-06-21T05:08:34.497Z,57.87
2018-06-21T05:09:34.484Z,59.22
2018-06-21T05:10:34.484Z,58.54
2018-06-21T05:11:34.790Z,59.31
2018-06-21T05:12:34.446Z,59.50
2018-06-21T05:13:34.438Z,58.15
2018-06-21T05:14:34.420Z,58.15
2018-06-21T05:15:34.425Z,59.24
2018-06-21T05:16:34.403Z,59.60
2018-06-21T05:17:34.383Z,59.41
2018-06-21T05:18:34.675Z,61.46
2018-06-21T05:19:34.366Z,62.23
2018-06-21T05:20:34.352Z,63.18
2018-06-21T05:21:34.339Z,61.36
2018-06-21T05:22:34.344Z,61.55
2018-06-21T05:23:34.596Z,61.84
2018-06-21T05:24:34.300Z,63.09
2018-06-21T05:25:34.741Z,65.40
2018-06-21T05:26:34.275Z,63.76
2018-06-21T05:27:35.849Z,64.43
2018-06-21T05:28:34.396Z,66.36
2018-06-21T05:29:34.331Z,66.07
2018-06-21T05:30:34.417Z,66.01
2018-06-21T05:31:34.629Z,66.01
2018-06-21T05:32:34.281Z,66.30
2018-06-21T05:33:34.200Z,66.58
2018-06-21T05:35:34.176Z,66.20
2018-06-21T05:36:34.170Z,66.88
2018-06-21T05:37:34.282Z,67.83
2018-06-21T05:38:34.137Z,66.97
2018-06-21T05:39:34.132Z,66.30
2018-06-21T05:41:34.107Z,67.83
2018-06-21T05:42:34.090Z,66.78
2018-06-21T05:43:34.386Z,69.09
2018-06-21T05:44:34.067Z,68.13
2018-06-21T05:45:34.055Z,68.41
2018-06-21T05:46:34.044Z,71.59
2018-06-21T05:47:34.039Z,69.57
2018-06-21T05:48:34.033Z,69.95
2018-06-21T05:49:34.315Z,68.90
2018-06-21T05:50:34.007Z,69.09
2018-06-21T05:51:34.008Z,69.95
2018-06-21T05:52:33.977Z,70.05
2018-06-21T05:53:33.979Z,70.05
2018-06-21T05:54:33.961Z,69.09
2018-06-21T05:55:34.245Z,69.47
2018-06-21T05:56:33.938Z,70.62
2018-06-21T05:57:33.922Z,71.11
2018-06-21T05:58:33.909Z,71.20
2018-06-21T05:59:33.973Z,68.99
2018-06-21T06:00:33.933Z,70.43
2018-06-21T06:01:34.179Z,68.22
2018-06-21T06:02:33.871Z,68.70
2018-06-21T06:04:33.865Z,67.83
2018-06-21T06:05:33.837Z,68.03
2018-06-21T06:06:33.821Z,69.38
2018-06-21T06:07:34.118Z,67.93
2018-06-21T06:08:33.828Z,70.34
2018-06-21T06:09:33.799Z,68.99
2018-06-21T06:11:33.774Z,70.24
2018-06-21T06:12:33.777Z,69.67
2018-06-21T06:13:33.757Z,70.43
2018-06-21T06:14:33.750Z,71.88
2018-06-21T06:15:33.730Z,71.30
2018-06-21T06:16:33.710Z,70.53
2018-06-21T06:17:33.704Z,72.39
2018-06-21T06:18:33.695Z,71.97
2018-06-21T06:19:33.682Z,72.26
2018-06-21T06:20:33.673Z,72.65
2018-06-21T06:21:33.658Z,70.82
2018-06-21T06:22:33.651Z,71.20
2018-06-21T06:23:33.643Z,71.49
2018-06-21T06:24:33.624Z,70.15
2018-06-21T06:25:33.666Z,70.43
2018-06-21T06:26:33.615Z,70.95
2018-06-21T06:27:33.601Z,69.28
2018-06-21T06:28:33.657Z,69.85
2018-06-21T06:29:33.571Z,69.09
2018-06-21T06:30:33.570Z,68.60
2018-06-21T06:31:33.919Z,68.09
2018-06-21T06:32:33.541Z,66.94
2018-06-21T06:33:33.578Z,66.36
2018-06-21T06:34:33.524Z,64.34
2018-06-21T06:35:33.511Z,64.25
2018-06-21T06:36:33.497Z,62.32
2018-06-21T06:37:33.490Z,58.09
2018-06-21T06:38:33.771Z,55.30
2018-06-21T06:39:33.458Z,46.72
2018-06-21T06:40:33.460Z,39.31
2018-06-21T06:41:33.441Z,33.72
2018-06-21T06:42:33.425Z,28.15
2018-06-21T06:43:33.414Z,19.40
2018-06-21T06:44:33.412Z,12.29
2018-06-21T06:45:33.695Z,6.91
2018-06-21T06:46:33.392Z,4.32
2018-06-21T06:47:33.369Z,2.40
2018-06-21T06:48:33.361Z,0.76
2018-06-21T06:49:33.342Z,0.00
2018-06-21T06:50:33.332Z,0.00
2018-06-21T06:51:33.619Z,0.00
2018-06-21T06:53:33.295Z,0.00
2018-06-21T06:54:33.292Z,0.00
2018-06-21T06:57:33.587Z,0.00
2018-06-21T06:58:33.233Z,0.00
2018-06-21T06:59:33.215Z,0.00
2018-06-21T07:00:33.201Z,0.00
2018-06-21T07:01:33.194Z,0.00
2018-06-21T07:02:33.175Z,0.00
2018-06-21T07:04:33.450Z,0.00
2018-06-21T07:05:33.136Z,0.00
2018-06-21T07:06:33.130Z,0.00
2018-06-21T07:07:33.112Z,0.00
2018-06-21T07:08:33.112Z,0.00
2018-06-21T07:09:33.138Z,0.00
2018-06-21T07:10:33.369Z,0.00
2018-06-21T07:11:33.067Z,0.00
2018-06-21T07:12:33.044Z,0.00
2018-06-21T07:13:33.031Z,0.00
2018-06-21T07:14:33.023Z,0.00
2018-06-21T07:15:33.002Z,0.00
2018-06-21T07:16:33.291Z,0.00
2018-06-21T07:17:32.971Z,0.00
2018-06-21T07:18:32.957Z,0.00
2018-06-21T07:19:32.950Z,0.00
2018-06-21T07:20:32.927Z,0.00
2018-06-21T07:21:32.921Z,0.00
2018-06-21T07:22:33.203Z,0.00
2018-06-21T07:23:32.884Z,0.00
2018-06-21T07:24:32.897Z,0.00
2018-06-21T07:25:32.855Z,0.00
2018-06-21T07:26:32.844Z,0.00
2018-06-21T07:27:32.825Z,0.00
2018-06-21T07:29:33.094Z,0.00
2018-06-21T07:30:32.782Z,0.00
2018-06-21T07:31:32.769Z,0.00
2018-06-21T07:32:32.749Z,0.00
2018-06-21T07:33:32.775Z,0.00
2018-06-21T07:34:32.745Z,0.00
2018-06-21T07:35:33.759Z,0.00
2018-06-21T07:36:32.693Z,0.00
2018-06-21T07:37:32.675Z,0.00
2018-06-21T07:38:32.668Z,0.00
2018-06-21T07:39:33.036Z,0.00
2018-06-21T07:40:33.016Z,0.00
2018-06-21T07:41:32.920Z,0.00
2018-06-21T07:42:32.606Z,0.00
2018-06-21T07:43:32.593Z,0.00
2018-06-21T07:44:32.572Z,0.00
2018-06-21T07:46:32.559Z,0.00
2018-06-21T07:47:32.862Z,0.00
2018-06-21T07:48:32.528Z,0.00
2018-06-21T07:49:32.499Z,0.00
2018-06-21T07:50:32.484Z,0.00
2018-06-21T07:51:32.475Z,0.00
2018-06-21T07:52:32.458Z,0.00
2018-06-21T07:53:32.744Z,0.00
2018-06-21T07:54:32.425Z,0.00
2018-06-21T07:55:32.414Z,0.00
2018-06-21T07:56:32.402Z,0.00
2018-06-21T07:57:32.841Z,0.00
2018-06-21T07:58:32.795Z,0.00
2018-06-21T07:59:32.368Z,0.00
2018-06-21T08:00:32.662Z,0.00
2018-06-21T08:01:32.325Z,0.00
2018-06-21T08:02:32.314Z,0.00
2018-06-21T08:03:32.292Z,0.00
2018-06-21T08:04:32.278Z,0.00
2018-06-21T08:05:32.262Z,0.00
2018-06-21T08:06:32.621Z,0.00
2018-06-21T08:07:32.230Z,0.00
2018-06-21T08:08:32.224Z,0.00
2018-06-21T08:09:32.212Z,0.00
2018-06-21T08:10:32.194Z,0.00
2018-06-21T08:11:32.234Z,0.00
2018-06-21T08:12:32.460Z,0.00
2018-06-21T08:13:32.200Z,0.00
2018-06-21T08:14:32.138Z,0.00
2018-06-21T08:15:32.184Z,0.00
2018-06-21T08:16:32.111Z,0.00
2018-06-21T08:17:32.082Z,0.00
2018-06-21T08:19:32.356Z,0.00
2018-06-21T08:20:32.051Z,0.00
2018-06-21T08:21:32.051Z,0.00
2018-06-21T08:22:32.016Z,0.00
2018-06-21T08:23:32.051Z,0.00
2018-06-21T08:24:31.988Z,0.00
2018-06-21T08:25:32.272Z,0.00
2018-06-21T08:27:32.172Z,0.00
2018-06-21T08:28:31.926Z,0.00
2018-06-21T08:29:31.909Z,0.00
2018-06-21T08:30:31.894Z,0.00
2018-06-21T08:31:32.180Z,0.00
2018-06-21T08:32:31.867Z,0.00
2018-06-21T08:33:31.852Z,0.00
2018-06-21T08:34:31.840Z,0.00
2018-06-21T08:36:31.858Z,0.00
2018-06-21T08:37:32.095Z,0.00
2018-06-21T08:38:31.779Z,0.00
2018-06-21T08:39:31.769Z,0.00
2018-06-21T08:40:31.744Z,0.00
2018-06-21T08:41:31.745Z,0.00
2018-06-21T08:42:31.771Z,0.00
2018-06-21T08:43:32.015Z,0.00
2018-06-21T08:44:31.694Z,0.00
2018-06-21T08:45:31.670Z,0.00
2018-06-21T08:46:31.661Z,0.00
2018-06-21T08:47:31.643Z,0.00
2018-06-21T08:48:31.688Z,0.00
2018-06-21T08:49:31.928Z,0.00
2018-06-21T08:50:31.613Z,1.15
2018-06-21T08:51:31.590Z,0.76
2018-06-21T08:52:31.579Z,0.09
2018-06-21T08:53:31.827Z,0.38
2018-06-21T08:54:31.753Z,0.00
2018-06-21T08:55:31.576Z,0.00
2018-06-21T08:57:31.909Z,0.00
2018-06-21T08:58:31.476Z,0.00
2018-06-21T08:59:31.461Z,0.00
2018-06-21T09:00:31.467Z,0.00
2018-06-21T09:01:31.431Z,0.00
2018-06-21T09:02:31.430Z,1.34
2018-06-21T09:03:31.703Z,0.00
2018-06-21T09:04:31.476Z,0.00
2018-06-21T09:05:31.368Z,0.00
2018-06-21T09:06:31.616Z,0.00
2018-06-21T09:07:31.343Z,0.00
2018-06-21T09:08:31.332Z,0.00
2018-06-21T09:09:31.623Z,0.00
2018-06-21T09:10:31.302Z,0.00
2018-06-21T09:11:31.282Z,0.00
2018-06-21T09:12:31.269Z,0.00
2018-06-21T09:13:31.264Z,0.28
2018-06-21T09:14:31.234Z,0.00
2018-06-21T09:15:31.537Z,1.24
2018-06-21T09:16:31.211Z,3.92
2018-06-21T09:17:31.305Z,3.72
2018-06-21T09:18:31.235Z,5.44
2018-06-21T09:19:31.170Z,6.79
2018-06-21T09:20:31.146Z,3.53
2018-06-21T09:21:31.434Z,4.39
2018-06-21T09:22:31.140Z,4.30
2018-06-21T09:23:31.100Z,10.13
2018-06-21T09:24:31.089Z,4.78
2018-06-21T09:25:31.071Z,6.88
2018-06-21T09:26:31.055Z,4.88
2018-06-21T09:27:31.342Z,8.89
2018-06-21T09:28:31.037Z,6.70
2018-06-21T09:29:31.021Z,6.60
2018-06-21T09:31:30.986Z,9.66
2018-06-21T09:32:30.963Z,19.70
2018-06-21T09:33:31.254Z,17.88
2018-06-21T09:34:30.938Z,19.99
2018-06-21T09:36:30.912Z,26.12
2018-06-21T09:37:30.984Z,30.43
2018-06-21T09:38:30.883Z,26.79
2018-06-21T09:39:31.167Z,28.72
2018-06-21T09:40:30.850Z,28.72
2018-06-21T09:41:30.881Z,36.19
2018-06-21T09:42:30.825Z,38.87
2018-06-21T09:43:30.808Z,35.81
2018-06-21T09:44:30.796Z,41.94
2018-06-21T09:45:31.082Z,36.88
2018-06-21T09:46:34.366Z,39.65
2018-06-21T09:47:30.760Z,47.51
2018-06-21T09:48:30.756Z,48.95
2018-06-21T09:49:30.737Z,44.64
2018-06-21T09:50:30.820Z,38.12
2018-06-21T09:51:31.004Z,53.93
2018-06-21T09:52:30.755Z,49.24
2018-06-21T09:53:30.680Z,40.33
2018-06-21T09:54:30.678Z,44.85
2018-06-21T09:55:30.656Z,48.69
2018-06-21T09:57:30.962Z,50.70
2018-06-21T09:58:30.674Z,44.56
2018-06-21T09:59:30.609Z,50.22
2018-06-21T10:00:30.595Z,42.84
2018-06-21T10:01:30.651Z,47.06
2018-06-21T10:02:30.575Z,55.40
2018-06-21T10:03:30.864Z,60.09
2018-06-21T10:04:30.554Z,57.31
2018-06-21T10:05:30.539Z,51.08
2018-06-21T10:06:30.534Z,59.90
2018-06-21T10:07:30.573Z,60.76
2018-06-21T10:08:30.511Z,53.07
2018-06-21T10:09:30.795Z,50.96
2018-06-21T10:10:30.485Z,57.38
2018-06-21T10:11:30.483Z,55.18
2018-06-21T10:12:30.465Z,57.19
2018-06-21T10:13:31.018Z,51.06
2018-06-21T10:16:30.716Z,44.73
2018-06-21T10:17:30.464Z,54.89
2018-06-21T10:18:30.391Z,57.19
2018-06-21T10:19:30.382Z,50.84
2018-06-21T10:20:30.370Z,41.38
2018-06-21T10:21:30.361Z,54.41
2018-06-21T10:22:30.654Z,53.00
2018-06-21T10:23:30.332Z,62.77
2018-06-21T10:24:30.333Z,59.64
2018-06-21T10:25:30.403Z,74.22
2018-06-21T10:26:30.299Z,59.36
2018-06-21T10:27:30.292Z,71.63
2018-06-21T10:28:30.273Z,74.27
2018-06-21T10:29:30.567Z,76.39
2018-06-21T10:30:30.248Z,75.29
2018-06-21T10:31:30.246Z,64.28
2018-06-21T10:32:30.227Z,67.91
2018-06-21T10:33:30.252Z,61.98
2018-06-21T10:34:30.217Z,57.86
2018-06-21T10:35:30.492Z,68.30
2018-06-21T10:36:30.179Z,66.77
2018-06-21T10:37:30.166Z,65.52
2018-06-21T10:38:30.153Z,61.88
2018-06-21T10:39:30.505Z,62.23
2018-06-21T10:40:30.135Z,57.95
2018-06-21T10:43:30.105Z,59.75
2018-06-21T10:44:30.085Z,61.66
2018-06-21T10:45:30.072Z,62.07
2018-06-21T10:46:30.085Z,60.25
2018-06-21T10:47:30.348Z,63.13
2018-06-21T10:48:30.029Z,61.40
2018-06-21T10:49:30.120Z,57.28
2018-06-21T10:50:30.015Z,56.90
2018-06-21T10:51:29.997Z,56.81
2018-06-21T10:52:29.983Z,57.89
2018-06-21T10:53:29.976Z,61.31
2018-06-21T10:54:30.257Z,56.04
2018-06-21T10:55:29.995Z,57.48
2018-06-21T10:56:29.935Z,59.01
2018-06-21T10:57:29.922Z,57.09
2018-06-21T10:58:29.909Z,65.91
2018-06-21T10:59:29.889Z,60.44
2018-06-21T11:00:30.800Z,60.25
2018-06-21T11:01:29.866Z,58.75
2018-06-21T11:02:29.866Z,62.68
2018-06-21T11:03:29.938Z,60.76
2018-06-21T11:04:30.109Z,62.71
2018-06-21T11:05:30.042Z,70.29
2018-06-21T11:06:30.272Z,84.56
2018-06-21T11:07:29.991Z,89.45
2018-06-21T11:08:29.974Z,94.64
2018-06-21T11:09:30.158Z,94.16
2018-06-21T11:10:29.762Z,96.47
2018-06-21T11:11:29.770Z,99.98
2018-06-21T11:12:29.734Z,95.89
2018-06-21T11:13:30.045Z,97.52
2018-06-21T11:14:29.720Z,87.15
2018-06-21T11:15:29.705Z,81.35
2018-06-21T11:16:29.696Z,93.26
2018-06-21T11:17:29.686Z,82.54
2018-06-21T11:18:29.728Z,70.20
2018-06-21T11:19:29.974Z,45.22
2018-06-21T11:21:29.909Z,24.99
2018-06-21T11:22:29.636Z,21.56
2018-06-21T11:23:29.625Z,18.21
2018-06-21T11:24:29.618Z,16.78
2018-06-21T11:25:29.601Z,13.45
2018-06-21T11:26:29.885Z,9.54
2018-06-21T11:27:29.592Z,10.59
2018-06-21T11:29:29.562Z,14.59
2018-06-21T11:30:29.531Z,13.54
2018-06-21T11:31:29.516Z,13.35
2018-06-21T11:32:29.856Z,20.42
2018-06-21T11:33:29.498Z,16.60
2018-06-21T11:34:29.478Z,18.70
2018-06-21T11:35:29.460Z,13.45
2018-06-21T11:36:29.445Z,12.59
2018-06-21T11:37:29.524Z,14.31
2018-06-21T11:38:29.899Z,12.78
2018-06-21T11:39:29.430Z,16.69
2018-06-21T11:40:29.391Z,12.40
2018-06-21T11:41:29.379Z,16.03
2018-06-21T11:42:29.372Z,15.45
2018-06-21T11:43:29.413Z,15.07
2018-06-21T11:44:29.630Z,13.54
2018-06-21T11:45:29.314Z,11.44
2018-06-21T11:46:29.292Z,14.88
2018-06-21T11:47:29.278Z,17.27
2018-06-21T11:48:29.282Z,16.69
2018-06-21T11:49:29.309Z,14.22
2018-06-21T11:50:29.238Z,12.30
2018-06-21T11:51:29.253Z,12.49
2018-06-21T11:52:29.248Z,16.41
2018-06-21T11:53:29.194Z,19.74
2018-06-21T11:54:29.208Z,18.90
2018-06-21T11:55:29.511Z,25.39
2018-06-21T11:56:29.135Z,30.26
2018-06-21T11:57:29.127Z,26.84
2018-06-21T11:58:29.165Z,27.22
2018-06-21T11:59:29.086Z,29.33
2018-06-21T12:00:29.080Z,32.39
2018-06-21T12:01:29.067Z,32.39
2018-06-21T12:02:29.077Z,41.47
2018-06-21T12:03:29.173Z,36.19
2018-06-21T12:04:29.017Z,34.38
2018-06-21T12:05:29.054Z,35.53
2018-06-21T12:06:29.282Z,36.39
2018-06-21T12:07:28.972Z,35.55
2018-06-21T12:09:28.982Z,51.70
2018-06-21T12:10:28.928Z,50.26
2018-06-21T12:11:28.911Z,41.09
2018-06-21T12:12:29.193Z,34.30
2018-06-21T12:13:28.899Z,32.58
2018-06-21T12:14:28.874Z,50.16
2018-06-21T12:15:28.860Z,40.70
2018-06-21T12:16:28.845Z,30.10
2018-06-21T12:17:28.823Z,39.06
2018-06-21T12:18:29.257Z,36.39
2018-06-21T12:19:28.802Z,31.99
2018-06-21T12:20:28.805Z,33.71
2018-06-21T12:21:28.830Z,33.15
2018-06-21T12:22:28.786Z,30.00
2018-06-21T12:23:28.751Z,25.32
2018-06-21T12:24:29.032Z,27.23
2018-06-21T12:25:28.711Z,27.89
2018-06-21T12:26:28.820Z,25.79
2018-06-21T12:27:28.716Z,22.73
2018-06-21T12:28:28.667Z,40.78
2018-06-21T12:29:28.646Z,51.29
2018-06-21T12:30:28.635Z,40.49
2018-06-21T12:31:29.028Z,47.94
2018-06-21T12:32:28.609Z,45.84
2018-06-21T12:33:28.589Z,47.08
2018-06-21T12:34:28.585Z,52.81
2018-06-21T12:35:28.573Z,53.77
2018-06-21T12:36:28.545Z,42.21
2018-06-21T12:37:28.577Z,47.66
2018-06-21T12:38:28.812Z,47.18
2018-06-21T12:39:28.495Z,62.46
2018-06-21T12:40:28.483Z,51.89
2018-06-21T12:41:28.465Z,60.13
2018-06-21T12:42:28.505Z,81.40
2018-06-21T12:43:28.437Z,73.94
2018-06-21T12:44:28.719Z,78.81
2018-06-21T12:46:28.390Z,71.26
2018-06-21T12:47:28.387Z,80.35
2018-06-21T12:48:28.382Z,87.00
2018-06-21T12:49:28.420Z,82.40
2018-06-21T12:50:28.655Z,87.51
2018-06-21T12:51:28.354Z,87.74
2018-06-21T12:52:28.317Z,93.73
2018-06-21T12:53:28.302Z,99.43
2018-06-21T12:54:28.281Z,96.75
2018-06-21T12:55:28.273Z,90.53
2018-06-21T12:56:28.556Z,97.18
2018-06-21T12:57:28.251Z,99.99
2018-06-21T12:58:28.232Z,99.99
2018-06-21T12:59:28.231Z,97.66
2018-06-21T13:00:28.254Z,97.09
2018-06-21T13:01:28.249Z,94.21
2018-06-21T13:02:28.186Z,99.99
2018-06-21T13:03:28.502Z,99.99
2018-06-21T13:04:28.237Z,99.99
2018-06-21T13:05:28.195Z,99.99
2018-06-21T13:06:28.160Z,99.99
2018-06-21T13:07:28.140Z,99.99
2018-06-21T13:08:28.129Z,99.99
2018-06-21T13:09:28.124Z,99.99
2018-06-21T13:10:28.427Z,99.99
2018-06-21T13:11:28.129Z,93.25
2018-06-21T13:12:28.095Z,99.99
2018-06-21T13:13:28.132Z,99.34
2018-06-21T13:14:28.188Z,98.10
2018-06-21T13:15:28.126Z,99.99
2018-06-21T13:16:28.359Z,99.73
2018-06-21T13:17:28.066Z,92.82
2018-06-21T13:18:28.073Z,99.99
2018-06-21T13:19:28.035Z,99.99
2018-06-21T13:20:28.038Z,99.99
2018-06-21T13:21:28.023Z,99.99
2018-06-21T13:22:28.396Z,99.99
2018-06-21T13:23:27.998Z,99.99
2018-06-21T13:24:28.011Z,99.99
2018-06-21T13:25:27.983Z,99.99
2018-06-21T13:27:27.966Z,98.24
2018-06-21T13:28:28.266Z,92.73
2018-06-21T13:29:27.941Z,82.30
2018-06-21T13:30:27.938Z,88.67
2018-06-21T13:31:27.987Z,98.04
2018-06-21T13:32:27.941Z,91.53
2018-06-21T13:33:27.904Z,95.84
2018-06-21T13:34:28.193Z,92.64
2018-06-21T13:35:28.212Z,92.07